sensor_id;sensor_type;location;lat;lon;timestamp;P1;durP1;ratioP1;P2;durP2;ratioP2
44137;SDS011;29800;55.942;37.314;2024-03-25T00:00:12;1.05;;;0.30;;
44137;SDS011;29800;55.942;37.314;2024-03-25T00:02:41;0.40;;;0.30;;
44137;SDS011;29800;55.942;37.314;2024-03-25T00:05:08;0.50;;;0.40;;
44137;SDS011;29800;55.942;37.314;2024-03-25T00:07:36;0.63;;;0.38;;
44137;SDS011;29800;55.942;37.314;2024-03-25T00:10:03;0.30;;;0.22;;
44137;SDS011;29800;55.942;37.314;2024-03-25T00:12:32;0.10;;;0.10;;
44137;SDS011;29800;55.942;37.314;2024-03-25T00:14:59;0.28;;;0.20;;
44137;SDS011;29800;55.942;37.314;2024-03-25T00:17:25;0.30;;;0.20;;
44137;SDS011;29800;55.942;37.314;2024-03-25T00:19:51;0.80;;;0.60;;
44137;SDS011;29800;55.942;37.314;2024-03-25T00:22:18;1.50;;;0.65;;
44137;SDS011;29800;55.942;37.314;2024-03-25T00:24:45;0.50;;;0.30;;
44137;SDS011;29800;55.942;37.314;2024-03-25T00:27:12;0.85;;;0.20;;
44137;SDS011;29800;55.942;37.314;2024-03-25T00:29:39;0.65;;;0.30;;
44137;SDS011;29800;55.942;37.314;2024-03-25T00:32:05;0.43;;;0.40;;
44137;SDS011;29800;55.942;37.314;2024-03-25T00:34:32;0.17;;;0.17;;
44137;SDS011;29800;55.942;37.314;2024-03-25T00:36:59;0.13;;;0.10;;
44137;SDS011;29800;55.942;37.314;2024-03-25T00:39:26;0.10;;;0.10;;
44137;SDS011;29800;55.942;37.314;2024-03-25T00:41:53;0.13;;;0.13;;
44137;SDS011;29800;55.942;37.314;2024-03-25T00:44:19;0.40;;;0.20;;
44137;SDS011;29800;55.942;37.314;2024-03-25T00:46:46;0.65;;;0.28;;
44137;SDS011;29800;55.942;37.314;2024-03-25T00:49:12;0.30;;;0.30;;
44137;SDS011;29800;55.942;37.314;2024-03-25T00:51:38;1.00;;;0.60;;
44137;SDS011;29800;55.942;37.314;2024-03-25T00:54:04;1.80;;;0.65;;
44137;SDS011;29800;55.942;37.314;2024-03-25T00:56:31;1.98;;;0.65;;
44137;SDS011;29800;55.942;37.314;2024-03-25T00:58:57;0.95;;;0.45;;
44137;SDS011;29800;55.942;37.314;2024-03-25T01:01:32;0.75;;;0.43;;
44137;SDS011;29800;55.942;37.314;2024-03-25T01:03:58;0.20;;;0.20;;
44137;SDS011;29800;55.942;37.314;2024-03-25T01:06:24;0.20;;;0.20;;
44137;SDS011;29800;55.942;37.314;2024-03-25T01:08:51;2.25;;;1.10;;
44137;SDS011;29800;55.942;37.314;2024-03-25T01:11:17;8.48;;;3.95;;
44137;SDS011;29800;55.942;37.314;2024-03-25T01:13:43;9.25;;;4.03;;
44137;SDS011;29800;55.942;37.314;2024-03-25T01:16:10;2.97;;;1.45;;
44137;SDS011;29800;55.942;37.314;2024-03-25T01:18:36;1.52;;;0.70;;
44137;SDS011;29800;55.942;37.314;2024-03-25T01:21:02;0.47;;;0.30;;
44137;SDS011;29800;55.942;37.314;2024-03-25T01:23:30;1.00;;;0.73;;
44137;SDS011;29800;55.942;37.314;2024-03-25T01:25:56;1.98;;;1.17;;
44137;SDS011;29800;55.942;37.314;2024-03-25T01:28:22;1.05;;;0.63;;
44137;SDS011;29800;55.942;37.314;2024-03-25T01:30:49;1.23;;;0.30;;
44137;SDS011;29800;55.942;37.314;2024-03-25T01:33:15;0.10;;;0.10;;
44137;SDS011;29800;55.942;37.314;2024-03-25T01:35:41;0.65;;;0.20;;
44137;SDS011;29800;55.942;37.314;2024-03-25T01:38:08;0.20;;;0.20;;
44137;SDS011;29800;55.942;37.314;2024-03-25T01:40:34;0.00;;;0.00;;
44137;SDS011;29800;55.942;37.314;2024-03-25T01:43:01;0.10;;;0.10;;
44137;SDS011;29800;55.942;37.314;2024-03-25T01:45:29;0.30;;;0.20;;
44137;SDS011;29800;55.942;37.314;2024-03-25T01:48:09;0.20;;;0.20;;
44137;SDS011;29800;55.942;37.314;2024-03-25T01:50:42;0.10;;;0.10;;
44137;SDS011;29800;55.942;37.314;2024-03-25T01:53:11;0.20;;;0.10;;
44137;SDS011;29800;55.942;37.314;2024-03-25T01:55:40;0.22;;;0.20;;
44137;SDS011;29800;55.942;37.314;2024-03-25T01:58:09;0.10;;;0.10;;
44137;SDS011;29800;55.942;37.314;2024-03-25T02:00:35;1.55;;;0.20;;
44137;SDS011;29800;55.942;37.314;2024-03-25T02:03:02;0.32;;;0.20;;
44137;SDS011;29800;55.942;37.314;2024-03-25T02:05:29;0.65;;;0.30;;
44137;SDS011;29800;55.942;37.314;2024-03-25T02:07:56;0.30;;;0.20;;
44137;SDS011;29800;55.942;37.314;2024-03-25T02:10:23;1.15;;;0.30;;
44137;SDS011;29800;55.942;37.314;2024-03-25T02:12:51;0.90;;;0.38;;
44137;SDS011;29800;55.942;37.314;2024-03-25T02:15:18;0.22;;;0.20;;
44137;SDS011;29800;55.942;37.314;2024-03-25T02:17:45;0.43;;;0.30;;
44137;SDS011;29800;55.942;37.314;2024-03-25T02:20:11;0.20;;;0.20;;
44137;SDS011;29800;55.942;37.314;2024-03-25T02:22:41;0.45;;;0.20;;
44137;SDS011;29800;55.942;37.314;2024-03-25T02:25:08;0.22;;;0.20;;
44137;SDS011;29800;55.942;37.314;2024-03-25T02:27:36;0.63;;;0.30;;
44137;SDS011;29800;55.942;37.314;2024-03-25T02:30:09;0.68;;;0.20;;
44137;SDS011;29800;55.942;37.314;2024-03-25T02:32:40;1.45;;;0.30;;
44137;SDS011;29800;55.942;37.314;2024-03-25T02:35:07;1.92;;;0.40;;
44137;SDS011;29800;55.942;37.314;2024-03-25T02:37:36;0.30;;;0.28;;
44137;SDS011;29800;55.942;37.314;2024-03-25T02:40:04;0.75;;;0.50;;
44137;SDS011;29800;55.942;37.314;2024-03-25T02:42:33;1.42;;;0.40;;
44137;SDS011;29800;55.942;37.314;2024-03-25T02:44:59;0.22;;;0.20;;
44137;SDS011;29800;55.942;37.314;2024-03-25T02:47:26;0.20;;;0.20;;
44137;SDS011;29800;55.942;37.314;2024-03-25T02:49:52;0.40;;;0.25;;
44137;SDS011;29800;55.942;37.314;2024-03-25T02:52:18;0.20;;;0.20;;
44137;SDS011;29800;55.942;37.314;2024-03-25T02:54:45;0.85;;;0.22;;
44137;SDS011;29800;55.942;37.314;2024-03-25T02:57:12;1.02;;;0.38;;
44137;SDS011;29800;55.942;37.314;2024-03-25T02:59:38;0.50;;;0.30;;
44137;SDS011;29800;55.942;37.314;2024-03-25T03:02:04;3.75;;;0.60;;
44137;SDS011;29800;55.942;37.314;2024-03-25T03:04:30;0.68;;;0.38;;
44137;SDS011;29800;55.942;37.314;2024-03-25T03:06:57;2.15;;;0.90;;
44137;SDS011;29800;55.942;37.314;2024-03-25T03:09:23;4.40;;;1.60;;
44137;SDS011;29800;55.942;37.314;2024-03-25T03:11:49;3.40;;;1.50;;
44137;SDS011;29800;55.942;37.314;2024-03-25T03:14:15;2.53;;;1.10;;
44137;SDS011;29800;55.942;37.314;2024-03-25T03:16:42;1.80;;;0.85;;
44137;SDS011;29800;55.942;37.314;2024-03-25T03:19:08;2.10;;;0.75;;
44137;SDS011;29800;55.942;37.314;2024-03-25T03:21:35;0.57;;;0.45;;
44137;SDS011;29800;55.942;37.314;2024-03-25T03:24:02;1.63;;;0.80;;
44137;SDS011;29800;55.942;37.314;2024-03-25T03:26:32;1.23;;;0.70;;
44137;SDS011;29800;55.942;37.314;2024-03-25T03:28:58;1.80;;;0.88;;
44137;SDS011;29800;55.942;37.314;2024-03-25T03:31:25;0.88;;;0.50;;
44137;SDS011;29800;55.942;37.314;2024-03-25T03:33:52;1.67;;;0.77;;
44137;SDS011;29800;55.942;37.314;2024-03-25T03:36:20;3.10;;;1.58;;
44137;SDS011;29800;55.942;37.314;2024-03-25T03:38:50;1.08;;;0.50;;
44137;SDS011;29800;55.942;37.314;2024-03-25T03:41:17;0.70;;;0.43;;
44137;SDS011;29800;55.942;37.314;2024-03-25T03:43:43;1.15;;;0.60;;
44137;SDS011;29800;55.942;37.314;2024-03-25T03:46:09;0.40;;;0.30;;
44137;SDS011;29800;55.942;37.314;2024-03-25T03:48:36;1.70;;;0.38;;
44137;SDS011;29800;55.942;37.314;2024-03-25T03:51:04;2.05;;;0.63;;
44137;SDS011;29800;55.942;37.314;2024-03-25T03:53:31;0.82;;;0.38;;
44137;SDS011;29800;55.942;37.314;2024-03-25T03:55:59;2.60;;;0.88;;
44137;SDS011;29800;55.942;37.314;2024-03-25T03:58:28;3.13;;;1.00;;
44137;SDS011;29800;55.942;37.314;2024-03-25T04:00:55;6.60;;;2.58;;
44137;SDS011;29800;55.942;37.314;2024-03-25T04:03:21;3.55;;;1.70;;
44137;SDS011;29800;55.942;37.314;2024-03-25T04:05:48;5.03;;;2.47;;
44137;SDS011;29800;55.942;37.314;2024-03-25T04:08:14;3.70;;;2.08;;
44137;SDS011;29800;55.942;37.314;2024-03-25T04:10:41;2.65;;;1.38;;
44137;SDS011;29800;55.942;37.314;2024-03-25T04:13:09;3.47;;;1.58;;
44137;SDS011;29800;55.942;37.314;2024-03-25T04:15:35;3.33;;;1.13;;
44137;SDS011;29800;55.942;37.314;2024-03-25T04:18:02;2.67;;;0.93;;
44137;SDS011;29800;55.942;37.314;2024-03-25T04:20:29;3.15;;;1.48;;
44137;SDS011;29800;55.942;37.314;2024-03-25T04:23:02;3.63;;;1.25;;
44137;SDS011;29800;55.942;37.314;2024-03-25T04:25:28;3.78;;;1.95;;
44137;SDS011;29800;55.942;37.314;2024-03-25T04:27:54;1.98;;;0.95;;
44137;SDS011;29800;55.942;37.314;2024-03-25T04:30:20;2.22;;;0.52;;
44137;SDS011;29800;55.942;37.314;2024-03-25T04:32:46;1.70;;;0.60;;
44137;SDS011;29800;55.942;37.314;2024-03-25T04:35:13;2.22;;;0.70;;
44137;SDS011;29800;55.942;37.314;2024-03-25T04:37:39;3.22;;;0.82;;
44137;SDS011;29800;55.942;37.314;2024-03-25T04:40:07;1.58;;;0.80;;
44137;SDS011;29800;55.942;37.314;2024-03-25T04:42:34;3.60;;;0.70;;
44137;SDS011;29800;55.942;37.314;2024-03-25T04:45:00;2.10;;;0.80;;
44137;SDS011;29800;55.942;37.314;2024-03-25T04:47:26;1.00;;;0.60;;
44137;SDS011;29800;55.942;37.314;2024-03-25T04:49:52;1.33;;;0.65;;
44137;SDS011;29800;55.942;37.314;2024-03-25T04:52:18;1.88;;;0.75;;
44137;SDS011;29800;55.942;37.314;2024-03-25T04:54:50;0.63;;;0.38;;
44137;SDS011;29800;55.942;37.314;2024-03-25T04:57:16;1.52;;;0.70;;
44137;SDS011;29800;55.942;37.314;2024-03-25T04:59:42;2.13;;;0.80;;
44137;SDS011;29800;55.942;37.314;2024-03-25T05:02:08;1.75;;;0.70;;
44137;SDS011;29800;55.942;37.314;2024-03-25T05:04:35;1.38;;;0.73;;
44137;SDS011;29800;55.942;37.314;2024-03-25T05:07:01;3.30;;;1.20;;
44137;SDS011;29800;55.942;37.314;2024-03-25T05:09:27;3.92;;;1.17;;
44137;SDS011;29800;55.942;37.314;2024-03-25T05:11:53;3.08;;;1.15;;
44137;SDS011;29800;55.942;37.314;2024-03-25T05:14:19;2.60;;;0.85;;
44137;SDS011;29800;55.942;37.314;2024-03-25T05:16:46;2.85;;;0.80;;
44137;SDS011;29800;55.942;37.314;2024-03-25T05:19:12;2.03;;;0.68;;
44137;SDS011;29800;55.942;37.314;2024-03-25T05:21:38;2.00;;;0.80;;
44137;SDS011;29800;55.942;37.314;2024-03-25T05:24:05;4.25;;;1.10;;
44137;SDS011;29800;55.942;37.314;2024-03-25T05:26:31;2.28;;;0.70;;
44137;SDS011;29800;55.942;37.314;2024-03-25T05:28:57;2.67;;;1.13;;
44137;SDS011;29800;55.942;37.314;2024-03-25T05:31:23;2.03;;;0.68;;
44137;SDS011;29800;55.942;37.314;2024-03-25T05:33:50;3.17;;;0.60;;
44137;SDS011;29800;55.942;37.314;2024-03-25T05:36:17;1.95;;;0.80;;
44137;SDS011;29800;55.942;37.314;2024-03-25T05:38:43;1.80;;;0.82;;
44137;SDS011;29800;55.942;37.314;2024-03-25T05:41:10;3.70;;;0.95;;
44137;SDS011;29800;55.942;37.314;2024-03-25T05:43:36;2.90;;;0.73;;
44137;SDS011;29800;55.942;37.314;2024-03-25T05:46:03;2.17;;;0.90;;
44137;SDS011;29800;55.942;37.314;2024-03-25T05:48:30;2.30;;;0.90;;
44137;SDS011;29800;55.942;37.314;2024-03-25T05:51:01;2.60;;;0.90;;
44137;SDS011;29800;55.942;37.314;2024-03-25T05:53:28;3.85;;;0.90;;
44137;SDS011;29800;55.942;37.314;2024-03-25T05:55:55;1.63;;;0.70;;
44137;SDS011;29800;55.942;37.314;2024-03-25T05:58:22;6.75;;;1.58;;
44137;SDS011;29800;55.942;37.314;2024-03-25T06:00:48;2.40;;;0.98;;
44137;SDS011;29800;55.942;37.314;2024-03-25T06:03:16;2.47;;;0.77;;
44137;SDS011;29800;55.942;37.314;2024-03-25T06:05:42;2.35;;;0.90;;
44137;SDS011;29800;55.942;37.314;2024-03-25T06:08:09;4.55;;;1.10;;
44137;SDS011;29800;55.942;37.314;2024-03-25T06:10:44;1.95;;;0.98;;
44137;SDS011;29800;55.942;37.314;2024-03-25T06:13:10;2.47;;;1.10;;
44137;SDS011;29800;55.942;37.314;2024-03-25T06:15:36;2.17;;;0.73;;
44137;SDS011;29800;55.942;37.314;2024-03-25T06:18:02;2.65;;;1.00;;
44137;SDS011;29800;55.942;37.314;2024-03-25T06:20:29;2.22;;;0.80;;
44137;SDS011;29800;55.942;37.314;2024-03-25T06:22:55;3.22;;;1.17;;
44137;SDS011;29800;55.942;37.314;2024-03-25T06:25:21;3.28;;;1.20;;
44137;SDS011;29800;55.942;37.314;2024-03-25T06:27:47;3.35;;;0.90;;
44137;SDS011;29800;55.942;37.314;2024-03-25T06:30:14;2.33;;;0.98;;
44137;SDS011;29800;55.942;37.314;2024-03-25T06:32:58;1.83;;;1.08;;
44137;SDS011;29800;55.942;37.314;2024-03-25T06:35:43;2.42;;;0.80;;
44137;SDS011;29800;55.942;37.314;2024-03-25T06:38:13;4.45;;;1.10;;
44137;SDS011;29800;55.942;37.314;2024-03-25T06:40:39;4.43;;;1.10;;
44137;SDS011;29800;55.942;37.314;2024-03-25T06:43:05;2.42;;;0.80;;
44137;SDS011;29800;55.942;37.314;2024-03-25T06:45:32;4.40;;;1.00;;
44137;SDS011;29800;55.942;37.314;2024-03-25T06:47:58;2.95;;;1.08;;
44137;SDS011;29800;55.942;37.314;2024-03-25T06:50:25;3.20;;;0.95;;
44137;SDS011;29800;55.942;37.314;2024-03-25T06:52:52;4.47;;;1.20;;
44137;SDS011;29800;55.942;37.314;2024-03-25T06:55:19;5.38;;;1.00;;
44137;SDS011;29800;55.942;37.314;2024-03-25T06:57:48;3.10;;;1.00;;
44137;SDS011;29800;55.942;37.314;2024-03-25T07:00:14;2.90;;;0.95;;
44137;SDS011;29800;55.942;37.314;2024-03-25T07:02:41;5.15;;;1.10;;
44137;SDS011;29800;55.942;37.314;2024-03-25T07:05:08;2.08;;;0.90;;
44137;SDS011;29800;55.942;37.314;2024-03-25T07:07:34;3.47;;;1.00;;
44137;SDS011;29800;55.942;37.314;2024-03-25T07:10:01;3.95;;;1.00;;
44137;SDS011;29800;55.942;37.314;2024-03-25T07:12:32;4.05;;;1.10;;
44137;SDS011;29800;55.942;37.314;2024-03-25T07:14:58;2.83;;;1.10;;
44137;SDS011;29800;55.942;37.314;2024-03-25T07:17:24;4.55;;;1.10;;
44137;SDS011;29800;55.942;37.314;2024-03-25T07:19:51;8.48;;;1.23;;
44137;SDS011;29800;55.942;37.314;2024-03-25T07:22:19;3.40;;;0.90;;
44137;SDS011;29800;55.942;37.314;2024-03-25T07:24:45;4.75;;;1.27;;
44137;SDS011;29800;55.942;37.314;2024-03-25T07:27:12;5.07;;;1.30;;
44137;SDS011;29800;55.942;37.314;2024-03-25T07:29:39;2.90;;;1.10;;
44137;SDS011;29800;55.942;37.314;2024-03-25T07:32:06;5.50;;;1.10;;
44137;SDS011;29800;55.942;37.314;2024-03-25T07:34:34;3.55;;;1.00;;
44137;SDS011;29800;55.942;37.314;2024-03-25T07:37:00;6.25;;;1.30;;
44137;SDS011;29800;55.942;37.314;2024-03-25T07:39:27;3.90;;;1.25;;
44137;SDS011;29800;55.942;37.314;2024-03-25T07:41:53;5.35;;;1.33;;
44137;SDS011;29800;55.942;37.314;2024-03-25T07:44:19;6.90;;;1.70;;
44137;SDS011;29800;55.942;37.314;2024-03-25T07:46:46;5.47;;;1.30;;
44137;SDS011;29800;55.942;37.314;2024-03-25T07:49:13;4.03;;;1.30;;
44137;SDS011;29800;55.942;37.314;2024-03-25T07:51:39;3.22;;;0.88;;
44137;SDS011;29800;55.942;37.314;2024-03-25T07:54:06;5.75;;;1.23;;
44137;SDS011;29800;55.942;37.314;2024-03-25T07:56:32;4.30;;;1.33;;
44137;SDS011;29800;55.942;37.314;2024-03-25T07:59:03;5.22;;;1.70;;
44137;SDS011;29800;55.942;37.314;2024-03-25T08:01:29;5.97;;;1.58;;
44137;SDS011;29800;55.942;37.314;2024-03-25T08:03:56;3.53;;;1.23;;
44137;SDS011;29800;55.942;37.314;2024-03-25T08:06:22;5.40;;;1.50;;
44137;SDS011;29800;55.942;37.314;2024-03-25T08:08:49;6.40;;;1.20;;
44137;SDS011;29800;55.942;37.314;2024-03-25T08:11:15;4.68;;;1.10;;
44137;SDS011;29800;55.942;37.314;2024-03-25T08:13:41;3.25;;;0.90;;
44137;SDS011;29800;55.942;37.314;2024-03-25T08:16:08;4.30;;;1.30;;
44137;SDS011;29800;55.942;37.314;2024-03-25T08:18:34;5.28;;;1.50;;
44137;SDS011;29800;55.942;37.314;2024-03-25T08:21:00;2.28;;;0.95;;
44137;SDS011;29800;55.942;37.314;2024-03-25T08:23:27;2.72;;;1.00;;
44137;SDS011;29800;55.942;37.314;2024-03-25T08:25:53;4.68;;;1.10;;
44137;SDS011;29800;55.942;37.314;2024-03-25T08:28:20;4.38;;;1.52;;
44137;SDS011;29800;55.942;37.314;2024-03-25T08:30:46;6.00;;;1.40;;
44137;SDS011;29800;55.942;37.314;2024-03-25T08:33:12;4.03;;;1.10;;
44137;SDS011;29800;55.942;37.314;2024-03-25T08:35:39;4.28;;;1.60;;
44137;SDS011;29800;55.942;37.314;2024-03-25T08:38:05;5.53;;;1.20;;
44137;SDS011;29800;55.942;37.314;2024-03-25T08:40:31;5.47;;;1.17;;
44137;SDS011;29800;55.942;37.314;2024-03-25T08:42:57;3.38;;;1.25;;
44137;SDS011;29800;55.942;37.314;2024-03-25T08:45:23;4.55;;;1.50;;
44137;SDS011;29800;55.942;37.314;2024-03-25T08:47:49;5.45;;;1.27;;
44137;SDS011;29800;55.942;37.314;2024-03-25T08:50:15;4.40;;;1.17;;
44137;SDS011;29800;55.942;37.314;2024-03-25T08:52:42;4.68;;;1.17;;
44137;SDS011;29800;55.942;37.314;2024-03-25T08:55:08;5.70;;;1.10;;
44137;SDS011;29800;55.942;37.314;2024-03-25T08:57:34;4.35;;;1.02;;
44137;SDS011;29800;55.942;37.314;2024-03-25T09:00:04;3.55;;;1.10;;
44137;SDS011;29800;55.942;37.314;2024-03-25T09:02:36;3.67;;;1.10;;
44137;SDS011;29800;55.942;37.314;2024-03-25T09:05:02;5.15;;;1.55;;
44137;SDS011;29800;55.942;37.314;2024-03-25T09:07:34;3.15;;;1.15;;
44137;SDS011;29800;55.942;37.314;2024-03-25T09:10:02;5.68;;;1.05;;
44137;SDS011;29800;55.942;37.314;2024-03-25T09:12:47;4.83;;;1.00;;
44137;SDS011;29800;55.942;37.314;2024-03-25T09:15:13;5.15;;;1.05;;
44137;SDS011;29800;55.942;37.314;2024-03-25T09:17:40;3.67;;;1.40;;
44137;SDS011;29800;55.942;37.314;2024-03-25T09:20:06;4.65;;;1.10;;
44137;SDS011;29800;55.942;37.314;2024-03-25T09:22:44;3.40;;;1.23;;
44137;SDS011;29800;55.942;37.314;2024-03-25T09:25:11;2.67;;;1.13;;
44137;SDS011;29800;55.942;37.314;2024-03-25T09:27:37;3.58;;;1.20;;
44137;SDS011;29800;55.942;37.314;2024-03-25T09:30:03;5.55;;;2.05;;
44137;SDS011;29800;55.942;37.314;2024-03-25T09:32:31;4.10;;;1.13;;
44137;SDS011;29800;55.942;37.314;2024-03-25T09:34:59;3.88;;;1.23;;
44137;SDS011;29800;55.942;37.314;2024-03-25T09:37:25;4.60;;;1.52;;
44137;SDS011;29800;55.942;37.314;2024-03-25T09:39:52;5.10;;;1.38;;
44137;SDS011;29800;55.942;37.314;2024-03-25T09:42:25;4.80;;;1.92;;
44137;SDS011;29800;55.942;37.314;2024-03-25T09:44:55;4.50;;;1.38;;
44137;SDS011;29800;55.942;37.314;2024-03-25T09:47:24;3.15;;;1.17;;
44137;SDS011;29800;55.942;37.314;2024-03-25T09:49:52;5.30;;;1.42;;
44137;SDS011;29800;55.942;37.314;2024-03-25T09:52:20;3.17;;;1.13;;
44137;SDS011;29800;55.942;37.314;2024-03-25T09:54:46;3.00;;;1.05;;
44137;SDS011;29800;55.942;37.314;2024-03-25T09:57:12;4.68;;;1.40;;
44137;SDS011;29800;55.942;37.314;2024-03-25T09:59:40;7.57;;;1.60;;
44137;SDS011;29800;55.942;37.314;2024-03-25T10:02:06;5.85;;;1.60;;
44137;SDS011;29800;55.942;37.314;2024-03-25T10:04:39;5.18;;;1.38;;
44137;SDS011;29800;55.942;37.314;2024-03-25T10:07:11;2.35;;;1.10;;
44137;SDS011;29800;55.942;37.314;2024-03-25T10:09:37;3.42;;;1.02;;
44137;SDS011;29800;55.942;37.314;2024-03-25T10:12:03;3.83;;;0.98;;
44137;SDS011;29800;55.942;37.314;2024-03-25T10:14:29;5.80;;;1.27;;
44137;SDS011;29800;55.942;37.314;2024-03-25T10:16:56;5.55;;;1.63;;
44137;SDS011;29800;55.942;37.314;2024-03-25T10:19:22;4.35;;;1.55;;
44137;SDS011;29800;55.942;37.314;2024-03-25T10:21:48;4.38;;;1.48;;
44137;SDS011;29800;55.942;37.314;2024-03-25T10:24:16;4.72;;;1.30;;
44137;SDS011;29800;55.942;37.314;2024-03-25T10:26:42;3.72;;;1.20;;
44137;SDS011;29800;55.942;37.314;2024-03-25T10:29:08;3.60;;;1.38;;
44137;SDS011;29800;55.942;37.314;2024-03-25T10:31:36;3.95;;;1.20;;
44137;SDS011;29800;55.942;37.314;2024-03-25T10:34:03;3.38;;;1.52;;
44137;SDS011;29800;55.942;37.314;2024-03-25T10:36:30;4.28;;;1.48;;
44137;SDS011;29800;55.942;37.314;2024-03-25T10:38:57;5.18;;;1.50;;
44137;SDS011;29800;55.942;37.314;2024-03-25T10:41:33;3.38;;;1.42;;
44137;SDS011;29800;55.942;37.314;2024-03-25T10:44:01;3.63;;;1.38;;
44137;SDS011;29800;55.942;37.314;2024-03-25T10:46:33;6.55;;;1.52;;
44137;SDS011;29800;55.942;37.314;2024-03-25T10:49:05;7.47;;;3.63;;
44137;SDS011;29800;55.942;37.314;2024-03-25T10:52:00;5.88;;;2.28;;
44137;SDS011;29800;55.942;37.314;2024-03-25T10:54:29;4.88;;;1.70;;
44137;SDS011;29800;55.942;37.314;2024-03-25T10:56:59;4.95;;;1.50;;
44137;SDS011;29800;55.942;37.314;2024-03-25T10:59:28;8.68;;;1.20;;
44137;SDS011;29800;55.942;37.314;2024-03-25T11:01:56;4.22;;;1.17;;
44137;SDS011;29800;55.942;37.314;2024-03-25T11:04:23;4.88;;;1.30;;
44137;SDS011;29800;55.942;37.314;2024-03-25T11:06:50;4.55;;;1.20;;
44137;SDS011;29800;55.942;37.314;2024-03-25T11:09:23;4.47;;;1.40;;
44137;SDS011;29800;55.942;37.314;2024-03-25T11:11:54;3.20;;;1.30;;
44137;SDS011;29800;55.942;37.314;2024-03-25T11:14:24;3.85;;;1.55;;
44137;SDS011;29800;55.942;37.314;2024-03-25T11:16:52;3.40;;;1.00;;
44137;SDS011;29800;55.942;37.314;2024-03-25T11:19:19;3.15;;;0.98;;
44137;SDS011;29800;55.942;37.314;2024-03-25T11:21:46;5.65;;;2.88;;
44137;SDS011;29800;55.942;37.314;2024-03-25T11:24:13;4.30;;;1.80;;
44137;SDS011;29800;55.942;37.314;2024-03-25T11:26:42;4.93;;;1.60;;
44137;SDS011;29800;55.942;37.314;2024-03-25T11:29:08;5.70;;;1.00;;
44137;SDS011;29800;55.942;37.314;2024-03-25T11:31:34;3.03;;;1.17;;
44137;SDS011;29800;55.942;37.314;2024-03-25T11:34:05;3.63;;;1.17;;
44137;SDS011;29800;55.942;37.314;2024-03-25T11:36:34;3.85;;;1.00;;
44137;SDS011;29800;55.942;37.314;2024-03-25T11:39:01;5.43;;;1.27;;
44137;SDS011;29800;55.942;37.314;2024-03-25T11:41:41;4.78;;;1.40;;
44137;SDS011;29800;55.942;37.314;2024-03-25T11:44:08;3.78;;;1.33;;
44137;SDS011;29800;55.942;37.314;2024-03-25T11:46:36;5.20;;;1.25;;
44137;SDS011;29800;55.942;37.314;2024-03-25T11:49:06;4.28;;;1.50;;
44137;SDS011;29800;55.942;37.314;2024-03-25T11:51:35;3.78;;;1.40;;
44137;SDS011;29800;55.942;37.314;2024-03-25T11:54:05;4.13;;;1.30;;
44137;SDS011;29800;55.942;37.314;2024-03-25T11:56:32;6.07;;;1.30;;
44137;SDS011;29800;55.942;37.314;2024-03-25T11:59:00;6.47;;;1.40;;
44137;SDS011;29800;55.942;37.314;2024-03-25T12:01:26;5.07;;;1.30;;
44137;SDS011;29800;55.942;37.314;2024-03-25T12:03:53;3.38;;;1.02;;
44137;SDS011;29800;55.942;37.314;2024-03-25T12:06:20;2.95;;;1.00;;
44137;SDS011;29800;55.942;37.314;2024-03-25T12:08:46;5.63;;;1.67;;
44137;SDS011;29800;55.942;37.314;2024-03-25T12:11:32;6.15;;;2.00;;
44137;SDS011;29800;55.942;37.314;2024-03-25T12:13:59;4.93;;;1.25;;
44137;SDS011;29800;55.942;37.314;2024-03-25T12:16:26;6.13;;;1.63;;
44137;SDS011;29800;55.942;37.314;2024-03-25T12:18:52;5.13;;;1.50;;
44137;SDS011;29800;55.942;37.314;2024-03-25T12:21:19;4.93;;;1.48;;
44137;SDS011;29800;55.942;37.314;2024-03-25T12:23:47;3.72;;;1.13;;
44137;SDS011;29800;55.942;37.314;2024-03-25T12:26:13;5.97;;;1.25;;
44137;SDS011;29800;55.942;37.314;2024-03-25T12:28:40;4.95;;;1.20;;
44137;SDS011;29800;55.942;37.314;2024-03-25T12:31:09;3.78;;;1.10;;
44137;SDS011;29800;55.942;37.314;2024-03-25T12:33:41;5.53;;;2.20;;
44137;SDS011;29800;55.942;37.314;2024-03-25T12:36:08;6.03;;;1.70;;
44137;SDS011;29800;55.942;37.314;2024-03-25T12:38:34;3.63;;;1.55;;
44137;SDS011;29800;55.942;37.314;2024-03-25T12:41:03;4.47;;;1.42;;
44137;SDS011;29800;55.942;37.314;2024-03-25T12:43:31;3.58;;;1.25;;
44137;SDS011;29800;55.942;37.314;2024-03-25T12:45:58;5.97;;;1.65;;
44137;SDS011;29800;55.942;37.314;2024-03-25T12:48:25;5.75;;;1.48;;
44137;SDS011;29800;55.942;37.314;2024-03-25T12:50:52;4.13;;;1.20;;
44137;SDS011;29800;55.942;37.314;2024-03-25T12:53:21;3.88;;;1.33;;
44137;SDS011;29800;55.942;37.314;2024-03-25T12:55:47;6.57;;;1.63;;
44137;SDS011;29800;55.942;37.314;2024-03-25T12:58:14;4.65;;;1.10;;
44137;SDS011;29800;55.942;37.314;2024-03-25T13:00:40;5.88;;;1.48;;
44137;SDS011;29800;55.942;37.314;2024-03-25T13:03:07;7.88;;;2.28;;
44137;SDS011;29800;55.942;37.314;2024-03-25T13:05:35;5.07;;;2.05;;
44137;SDS011;29800;55.942;37.314;2024-03-25T13:08:02;3.30;;;1.40;;
44137;SDS011;29800;55.942;37.314;2024-03-25T13:10:31;2.95;;;1.20;;
44137;SDS011;29800;55.942;37.314;2024-03-25T13:12:57;3.72;;;1.90;;
44137;SDS011;29800;55.942;37.314;2024-03-25T13:15:23;7.63;;;1.73;;
44137;SDS011;29800;55.942;37.314;2024-03-25T13:17:50;6.57;;;1.42;;
44137;SDS011;29800;55.942;37.314;2024-03-25T13:20:16;4.03;;;1.38;;
44137;SDS011;29800;55.942;37.314;2024-03-25T13:22:43;3.53;;;1.35;;
44137;SDS011;29800;55.942;37.314;2024-03-25T13:25:11;3.35;;;1.17;;
44137;SDS011;29800;55.942;37.314;2024-03-25T13:27:37;4.82;;;1.50;;
44137;SDS011;29800;55.942;37.314;2024-03-25T13:30:04;3.42;;;1.52;;
44137;SDS011;29800;55.942;37.314;2024-03-25T13:32:32;6.72;;;1.65;;
44137;SDS011;29800;55.942;37.314;2024-03-25T13:34:58;4.40;;;1.15;;
44137;SDS011;29800;55.942;37.314;2024-03-25T13:37:24;4.18;;;1.35;;
44137;SDS011;29800;55.942;37.314;2024-03-25T13:39:50;6.07;;;1.17;;
44137;SDS011;29800;55.942;37.314;2024-03-25T13:42:18;6.00;;;2.03;;
44137;SDS011;29800;55.942;37.314;2024-03-25T13:44:45;4.68;;;1.65;;
44137;SDS011;29800;55.942;37.314;2024-03-25T13:47:11;5.55;;;1.60;;
44137;SDS011;29800;55.942;37.314;2024-03-25T13:49:37;3.92;;;1.40;;
44137;SDS011;29800;55.942;37.314;2024-03-25T13:52:03;3.80;;;1.35;;
44137;SDS011;29800;55.942;37.314;2024-03-25T13:54:30;3.42;;;1.13;;
44137;SDS011;29800;55.942;37.314;2024-03-25T13:56:56;4.05;;;1.33;;
44137;SDS011;29800;55.942;37.314;2024-03-25T13:59:23;4.22;;;2.22;;
44137;SDS011;29800;55.942;37.314;2024-03-25T14:01:49;3.85;;;1.60;;
44137;SDS011;29800;55.942;37.314;2024-03-25T14:04:17;4.45;;;1.50;;
44137;SDS011;29800;55.942;37.314;2024-03-25T14:06:43;4.97;;;1.50;;
44137;SDS011;29800;55.942;37.314;2024-03-25T14:09:24;3.88;;;1.23;;
44137;SDS011;29800;55.942;37.314;2024-03-25T14:11:51;6.68;;;1.40;;
44137;SDS011;29800;55.942;37.314;2024-03-25T14:14:17;3.25;;;1.58;;
44137;SDS011;29800;55.942;37.314;2024-03-25T14:16:43;4.07;;;1.40;;
44137;SDS011;29800;55.942;37.314;2024-03-25T14:19:10;4.13;;;1.67;;
44137;SDS011;29800;55.942;37.314;2024-03-25T14:21:36;3.88;;;1.42;;
44137;SDS011;29800;55.942;37.314;2024-03-25T14:24:04;4.82;;;1.25;;
44137;SDS011;29800;55.942;37.314;2024-03-25T14:26:31;3.88;;;2.05;;
44137;SDS011;29800;55.942;37.314;2024-03-25T14:28:57;5.97;;;1.95;;
44137;SDS011;29800;55.942;37.314;2024-03-25T14:31:25;6.88;;;2.10;;
44137;SDS011;29800;55.942;37.314;2024-03-25T14:33:53;4.75;;;1.67;;